Latest Weather Observations for Esperance

IDW60801

Issued at 4:03 am WST Tuesday 7 February 2023 (issued every 10 minutes, with the page automatically refreshed every 10 minutes)

About weather observations | Map of weather stations | Latest weather observations for WA | Other Formats
Station Details ID: 009789 Name: ESPERANCE Lat: -33.83 Lon: 121.89 Height: 25.0 m
Data from the previous 72 hours. | See also: Recent months at Esperance
Date/Time
WST
Temp
°C
App
Temp
°C
Dew
Point
°C
Rel
Hum
%
Delta-T
°C
Wind Press
QNH
hPa
Press
MSL
hPa
Rain since
9am
mm
Dir  Spd
km/h
Gust
km/h
Spd
kts
Gust
kts
07/04:00am 18.6 18.3 17.4 93 0.7 WNW 15 22 8 12 1006.4 1006.3 0.0
07/03:50am 18.6 17.9 17.4 93 0.7 NW 17 24 9 13 1006.3 1006.2 0.0
07/03:30am 18.8 18.2 17.5 92 0.8 NW 17 28 9 15 1006.2 1006.1 0.0
07/03:19am 19.0 18.8 17.5 91 0.9 NW 15 22 8 12 1006.1 1006.0 0.0
07/03:11am 19.1 18.8 17.4 90 1.0 NW 15 22 8 12 1006.1 1006.0 0.0
07/03:10am 19.2 19.0 17.5 90 1.0 NW 15 22 8 12 1006.2 1006.1 0.0
07/03:00am 19.4 19.2 17.5 89 1.2 NW 15 22 8 12 1006.0 1005.9 0.0
07/02:44am 19.5 19.3 17.5 88 1.2 NW 15 19 8 10 1006.2 1006.1 0.0
07/02:30am 19.8 19.6 17.6 87 1.3 NW 15 20 8 11 1006.1 1006.0 0.0
07/02:00am 20.5 20.3 17.5 83 1.8 WNW 15 22 8 12 1006.1 1006.0 0.0
07/01:30am 21.8 21.6 17.6 77 2.6 NW 15 20 8 11 1006.0 1005.9 0.0
07/01:00am 22.5 22.2 17.4 73 3.2 NW 15 20 8 11 1006.0 1005.9 0.0
07/12:30am 24.2 23.7 13.7 52 6.1 N 9 11 5 6 1006.1 1006.0 0.0
07/12:00am 25.1 24.1 13.3 48 6.9 NE 11 17 6 9 1006.1 1006.0 0.0
 
Date/Time
WST
Temp
°C
App
Temp
°C
Dew
Point
°C
Rel
Hum
%
Delta-T
°C
Wind Press
QNH
hPa
Press
MSL
hPa
Rain since
9am
mm
Dir  Spd
km/h
Gust
km/h
Spd
kts
Gust
kts
06/11:30pm 25.6 24.5 13.1 46 7.3 NNE 11 13 6 7 1006.2 1006.1 0.0
06/11:00pm 25.9 24.5 13.4 46 7.4 N 13 15 7 8 1006.2 1006.1 0.0
06/10:30pm 26.5 25.3 12.9 43 7.9 NNW 11 20 6 11 1006.3 1006.2 0.0
06/10:00pm 26.7 24.2 12.4 41 8.3 NNW 17 30 9 16 1006.4 1006.3 0.0
06/09:30pm 27.3 23.0 12.1 39 8.8 NNE 26 43 14 23 1005.1 1005.0 0.0
06/09:00pm 27.6 24.7 12.8 40 8.7 NE 20 33 11 18 1005.1 1005.0 0.0
06/08:30pm 27.6 23.9 12.8 40 8.7 NE 24 39 13 21 1004.3 1004.2 0.0
06/08:00pm 27.1 23.6 13.4 42 8.1 NE 24 37 13 20 1004.1 1004.0 0.0
06/07:30pm 27.5 23.4 13.8 43 8.1 NE 28 48 15 26 1003.9 1003.8 0.0
06/07:00pm 28.0 24.1 14.3 43 8.3 NE 28 46 15 25 1003.6 1003.5 0.0
06/06:59pm 28.1 24.2 14.3 42 8.3 NE 28 46 15 25 1003.7 1003.6 0.0
06/06:30pm 29.1 24.7 14.1 40 9.0 NE 30 43 16 23 1003.3 1003.2 0.0
06/06:20pm 29.5 25.6 14.5 40 9.1 NE 28 46 15 25 1003.4 1003.3 0.0
06/06:00pm 30.2 27.4 14.3 38 9.7 NE 22 35 12 19 1003.7 1003.6 0.0
06/05:30pm 31.1 28.7 14.3 36 10.2 ENE 20 35 11 19 1003.1 1003.0 0.0
06/05:17pm 31.6 27.7 14.3 35 10.5 NE 28 46 15 25 1002.8 1002.7 0.0
06/05:00pm 32.1 28.3 14.7 35 10.7 ENE 28 44 15 24 1002.6 1002.5 0.0
06/04:36pm 33.3 29.0 15.3 34 11.2 NE 32 50 17 27 1002.6 1002.5 0.0
06/04:30pm 33.6 29.0 15.1 33 11.5 NE 33 46 18 25 1002.5 1002.4 0.0
06/04:00pm 33.7 29.5 15.7 34 11.3 ENE 32 50 17 27 1002.9 1002.8 0.0
06/03:30pm 33.8 29.5 15.3 33 11.5 E 32 52 17 28 1003.6 1003.5 0.0
06/03:27pm 33.6 29.9 15.1 33 11.5 E 28 52 15 28 1003.7 1003.6 0.0
06/03:00pm 29.8 28.0 17.9 48 7.6 ESE 24 33 13 18 1004.6 1004.5 0.0
06/02:30pm 28.1 27.6 17.0 51 7.0 SE 15 22 8 12 1005.4 1005.3 0.0
06/02:18pm 27.8 26.6 16.1 49 7.2 E 17 30 9 16 1005.8 1005.7 0.0
06/02:00pm 33.5 29.6 9.5 23 13.7 ENE 20 37 11 20 1005.9 1005.8 0.0
06/01:30pm 31.9 28.5 11.1 28 12.1 ENE 20 32 11 17 1006.9 1006.8 0.0
06/01:00pm 31.7 28.4 11.5 29 11.8 ENE 20 33 11 18 1006.6 1006.5 0.0
06/12:30pm 30.4 26.7 11.4 31 11.0 E 22 41 12 22 1007.5 1007.4 0.0
06/12:00pm 30.1 27.0 11.6 32 10.8 E 19 30 10 16 1008.0 1007.9 0.0
06/11:30am 29.5 26.5 12.0 34 10.2 ENE 19 30 10 16 1008.4 1008.3 0.0
06/11:00am 29.0 26.5 12.4 36 9.7 ENE 17 32 9 17 1009.1 1009.0 0.0
06/10:30am 27.7 24.6 12.1 38 9.0 NE 20 30 11 16 1009.5 1009.4 0.0
06/10:00am 25.6 22.7 12.4 43 7.6 ENE 19 35 10 19 1009.9 1009.8 0.0
06/09:30am 24.2 19.7 12.5 48 6.7 NE 28 39 15 21 1010.1 1010.0 0.0
06/09:00am 23.5 19.9 13.1 52 6.0 NE 24 43 13 23 1010.2 1010.1 0.0
06/08:30am 22.9 19.9 13.7 56 5.4 NE 22 35 12 19 1010.8 1010.7 0.0
06/08:00am 20.7 18.0 13.4 63 4.2 ENE 20 35 11 19 1010.9 1010.8 0.0
06/07:30am 20.0 17.6 13.7 67 3.6 ENE 19 32 10 17 1011.2 1011.1 0.0
06/07:00am 19.8 18.4 13.5 67 3.6 E 13 22 7 12 1011.9 1011.8 0.0
06/06:30am 19.7 17.4 14.1 70 3.2 E 19 26 10 14 1012.0 1011.9 0.0
06/06:00am 20.0 18.3 13.7 67 3.6 ESE 15 22 8 12 1012.1 1012.0 0.0
06/05:30am 19.9 18.4 13.1 65 3.9 E 13 19 7 10 1011.3 1011.2 0.0
06/05:00am 19.7 17.9 13.2 66 3.7 ENE 15 20 8 11 1010.3 1010.2 0.0
06/04:30am 19.9 17.2 13.4 66 3.7 NE 20 28 11 15 1009.6 1009.5 0.0
06/04:00am 20.1 16.9 13.1 64 4.0 NE 22 32 12 17 1009.4 1009.3 0.0
06/03:30am 20.1 16.7 12.6 62 4.2 NE 22 37 12 20 1009.1 1009.0 0.0
06/03:00am 19.9 16.6 12.7 63 4.1 NE 22 33 12 18 1009.1 1009.0 0.0
06/02:30am 19.4 16.4 13.8 70 3.2 NE 22 30 12 16 1009.3 1009.2 0.0
06/02:00am 19.3 16.8 14.1 72 3.0 ENE 20 30 11 16 1009.3 1009.2 0.0
06/01:30am 19.6 17.2 14.4 72 3.0 NE 20 33 11 18 1009.6 1009.5 0.0
06/01:00am 19.7 17.3 14.3 71 3.1 ENE 20 33 11 18 1009.7 1009.6 0.0
06/12:30am 19.9 17.9 14.0 69 3.4 ENE 17 28 9 15 1010.0 1009.9 0.0
06/12:00am 20.1 18.0 13.6 66 3.7 ENE 17 24 9 13 1010.3 1010.2 0.0
 
Date/Time
WST
Temp
°C
App
Temp
°C
Dew
Point
°C
Rel
Hum
%
Delta-T
°C
Wind Press
QNH
hPa
Press
MSL
hPa
Rain since
9am
mm
Dir  Spd
km/h
Gust
km/h
Spd
kts
Gust
kts
05/11:30pm 20.5 17.8 13.0 62 4.3 ENE 19 32 10 17 1010.5 1010.4 0.0
05/11:00pm 21.0 18.1 12.9 60 4.6 ENE 20 35 11 19 1010.6 1010.5 0.0
05/10:30pm 21.4 18.5 12.8 58 4.9 ENE 20 37 11 20 1010.9 1010.8 0.0
05/10:00pm 21.7 19.1 13.1 58 4.9 ENE 19 32 10 17 1010.9 1010.8 0.0
05/09:30pm 22.2 19.8 12.7 55 5.4 E 17 30 9 16 1011.5 1011.4 0.0
05/09:00pm 22.7 20.5 13.2 55 5.5 E 17 30 9 16 1011.4 1011.3 0.0
05/08:30pm 23.1 21.0 13.6 55 5.5 E 17 32 9 17 1011.2 1011.1 0.0
05/08:00pm 22.4 21.4 15.5 65 4.1 ESE 15 20 8 11 1010.9 1010.8 0.0
05/07:30pm 22.6 21.3 15.9 66 4.0 ESE 17 22 9 12 1010.5 1010.4 0.0
05/07:00pm 22.3 21.4 16.8 71 3.4 ESE 17 22 9 12 1010.2 1010.1 0.0
05/06:30pm 22.5 20.6 16.8 70 3.5 ESE 22 32 12 17 1009.7 1009.6 0.0
05/06:00pm 22.8 20.6 16.8 69 3.7 SE 24 33 13 18 1009.4 1009.3 0.0
05/05:30pm 23.7 20.1 16.2 63 4.6 SE 30 43 16 23 1009.3 1009.2 0.0
05/05:00pm 24.6 20.3 15.5 57 5.5 SE 32 41 17 22 1009.3 1009.2 0.0
05/04:30pm 24.9 21.3 16.3 59 5.3 SE 30 44 16 24 1009.3 1009.2 0.0
05/04:00pm 25.5 22.2 16.9 59 5.3 SE 30 41 16 22 1009.5 1009.4 0.0
05/03:30pm 25.8 22.5 16.1 55 5.9 SE 28 39 15 21 1009.6 1009.5 0.0
05/03:00pm 26.1 22.4 16.1 54 6.1 SE 30 41 16 22 1009.9 1009.8 0.0
05/02:30pm 26.5 22.1 15.2 49 6.8 SE 32 43 17 23 1009.8 1009.7 0.0
05/02:00pm 26.2 22.7 15.6 52 6.5 SE 28 37 15 20 1010.0 1009.9 0.0
05/01:30pm 26.2 22.3 15.6 52 6.5 SSE 30 39 16 21 1010.3 1010.2 0.0
05/01:00pm 26.0 22.1 15.4 52 6.4 SSE 30 39 16 21 1010.3 1010.2 0.0
05/12:30pm 29.0 26.1 14.0 39 9.0 SSE 22 30 12 16 1010.5 1010.4 0.0
05/12:18pm 28.6 25.2 12.5 37 9.4 SE 22 33 12 18 1010.6 1010.5 0.0
05/12:00pm 33.9 31.3 9.2 22 14.1 N 13 24 7 13 1010.8 1010.7 0.0
05/11:30am 32.1 28.9 8.4 23 13.2 NE 15 24 8 13 1011.0 1010.9 0.0
05/11:00am 31.5 28.1 9.1 25 12.6 NNE 17 22 9 12 1011.5 1011.4 0.0
05/10:30am 31.0 27.6 10.4 28 11.8 N 19 26 10 14 1011.8 1011.7 0.0
05/10:00am 28.9 25.2 10.1 31 10.6 N 20 28 11 15 1012.2 1012.1 0.0
05/09:30am 27.8 23.9 10.9 35 9.6 N 22 28 12 15 1012.6 1012.5 0.0
05/09:00am 26.1 22.2 10.7 38 8.7 N 22 32 12 17 1012.8 1012.7 0.0
05/08:30am 23.8 20.5 11.5 46 6.9 N 20 26 11 14 1013.0 1012.9 0.0
05/08:00am 21.6 17.4 11.0 51 5.8 NNE 24 33 13 18 1012.9 1012.8 0.0
05/07:30am 20.5 17.5 12.0 58 4.7 NNE 19 30 10 16 1013.1 1013.0 0.0
05/07:00am 18.7 15.5 11.8 64 3.8 NNE 20 28 11 15 1013.0 1012.9 0.0
05/06:30am 17.6 14.4 11.9 69 3.1 NNE 20 32 11 17 1012.9 1012.8 0.0
05/06:00am 16.8 13.2 11.7 72 2.8 NNE 22 37 12 20 1012.7 1012.6 0.0
05/05:30am 16.5 12.8 11.6 73 2.7 NNE 22 33 12 18 1012.7 1012.6 0.0
05/05:00am 16.5 12.4 11.4 72 2.8 NNE 24 37 13 20 1012.4 1012.3 0.0
05/04:30am 16.6 12.1 11.3 71 2.9 NNE 26 37 14 20 1012.0 1011.9 0.0
05/04:00am 16.7 12.5 11.2 70 3.0 NNE 24 37 13 20 1012.0 1011.9 0.0
05/03:30am 16.6 13.7 11.1 70 3.0 NNE 17 28 9 15 1012.0 1011.9 0.0
05/03:00am 16.8 13.4 11.3 70 3.0 NE 20 32 11 17 1011.9 1011.8 0.0
05/02:30am 16.8 14.0 11.5 71 2.9 NE 17 24 9 13 1012.1 1012.0 0.0
05/02:00am 16.9 14.6 11.8 72 2.8 NE 15 24 8 13 1012.3 1012.2 0.0
05/01:30am 17.1 14.6 12.2 73 2.7 NE 17 24 9 13 1012.4 1012.3 0.0
05/01:00am 17.2 14.7 12.3 73 2.7 NE 17 26 9 14 1012.5 1012.4 0.0
05/12:30am 17.3 15.6 12.4 73 2.7 NE 13 19 7 10 1012.6 1012.5 0.0
05/12:00am 17.7 15.2 12.4 71 2.9 NE 17 26 9 14 1012.7 1012.6 0.0
 
Date/Time
WST
Temp
°C
App
Temp
°C
Dew
Point
°C
Rel
Hum
%
Delta-T
°C
Wind Press
QNH
hPa
Press
MSL
hPa
Rain since
9am
mm
Dir  Spd
km/h
Gust
km/h
Spd
kts
Gust
kts
04/11:30pm 18.2 15.8 12.6 70 3.1 NE 17 26 9 14 1013.0 1012.9 0.0
04/11:00pm 18.6 16.6 12.8 69 3.3 ENE 15 24 8 13 1013.0 1012.9 0.0
04/10:30pm 19.1 17.2 13.1 68 3.4 ENE 15 24 8 13 1012.8 1012.7 0.0
04/10:00pm 19.7 17.9 13.2 66 3.7 ENE 15 24 8 13 1012.8 1012.7 0.0
04/09:30pm 20.4 18.5 13.1 63 4.2 E 15 26 8 14 1012.9 1012.8 0.0
04/09:00pm 21.3 19.0 13.0 59 4.7 ENE 17 32 9 17 1012.7 1012.6 0.0
04/08:30pm 22.1 19.9 13.2 57 5.1 E 17 24 9 13 1012.6 1012.5 0.0
04/08:00pm 21.5 20.2 14.9 66 3.9 ESE 15 19 8 10 1012.2 1012.1 0.0
04/07:30pm 21.2 19.5 15.7 71 3.3 ESE 19 28 10 15 1011.7 1011.6 0.0
04/07:00pm 21.6 19.1 16.1 71 3.3 ESE 24 33 13 18 1011.4 1011.3 0.0
04/06:30pm 22.1 19.2 16.1 69 3.6 ESE 26 37 14 20 1011.0 1010.9 0.0
04/06:00pm 22.3 19.4 16.1 68 3.8 ESE 26 35 14 19 1010.7 1010.6 0.0
04/05:30pm 22.9 20.1 16.4 66 4.0 ESE 26 41 14 22 1010.6 1010.5 0.0
04/05:00pm 22.9 19.4 16.4 66 4.0 SE 30 41 16 22 1010.8 1010.7 0.0
04/04:30pm 23.7 19.8 16.5 64 4.4 SE 32 39 17 21 1010.7 1010.6 0.0
04/04:00pm 24.0 19.9 16.0 61 4.9 SE 32 46 17 25 1010.8 1010.7 0.0
04/03:30pm 24.0 20.9 16.5 63 4.6 SE 28 41 15 22 1011.1 1011.0 0.0
04/03:00pm 24.4 20.7 16.9 63 4.6 SE 32 46 17 25 1011.4 1011.3 0.0
04/02:30pm 24.5 21.3 16.2 60 5.1 SE 28 37 15 20 1011.8 1011.7 0.0
04/02:00pm 24.8 21.6 16.2 58 5.3 SE 28 41 15 22 1012.3 1012.2 0.0
04/01:30pm 26.1 23.4 15.5 52 6.4 SE 24 35 13 19 1012.7 1012.6 0.0
04/01:00pm 28.9 25.6 11.0 33 10.2 NNE 19 30 10 16 1013.2 1013.1 0.0
04/12:30pm 28.5 26.2 11.6 35 9.7 ENE 15 24 8 13 1013.7 1013.7 0.0
04/12:00pm 26.9 24.5 11.4 38 8.8 ENE 15 28 8 15 1014.3 1014.3 0.0
04/11:30am 26.2 23.4 11.5 40 8.4 NNE 17 22 9 12 1014.9 1014.9 0.0
04/11:00am 25.7 23.6 12.5 44 7.6 NNE 15 24 8 13 1015.8 1015.7 0.0
04/10:30am 24.6 22.7 11.9 45 7.2 ENE 13 20 7 11 1016.2 1016.1 0.0
04/10:00am 22.6 20.5 12.3 52 5.8 NE 15 22 8 12 1016.8 1016.7 0.0
04/09:30am 21.4 18.5 12.3 56 5.1 NE 19 30 10 16 1017.1 1017.0 0.0
04/09:00am 20.6 17.1 12.1 58 4.8 NE 22 32 12 17 1017.3 1017.2 0.0
04/08:30am 20.1 17.2 12.3 61 4.4 NE 19 26 10 14 1017.3 1017.2 0.0
04/08:00am 19.0 16.1 12.3 65 3.7 NNE 19 30 10 16 1017.4 1017.3 0.0
04/07:30am 18.1 15.1 12.5 70 3.1 NE 20 35 11 19 1017.4 1017.3 0.0
04/07:00am 17.6 14.1 12.3 71 2.9 NE 22 32 12 17 1017.5 1017.4 0.0
04/06:30am 17.4 15.5 11.7 69 3.1 NE 13 22 7 12 1017.4 1017.3 0.0
04/06:00am 17.0 14.6 11.5 70 3.0 NE 15 22 8 12 1017.3 1017.2 0.0
04/05:30am 17.0 14.7 11.7 71 2.9 ENE 15 22 8 12 1017.2 1017.1 0.0
04/05:00am 17.0 15.0 11.5 70 3.0 ENE 13 20 7 11 1017.0 1016.9 0.0
04/04:30am 17.0 15.4 11.7 71 2.9 E 11 17 6 9 1016.8 1016.7 0.0

Other formats

Comma delimited format used in spreadsheet applications
http://www.bom.gov.au/fwo/IDW60801/IDW60801.94638.axf

JavaScript Object Notation format (JSON) in row-major order
http://www.bom.gov.au/fwo/IDW60801/IDW60801.94638.json

Data quality

Most of these data are generated automatically and are frequently updated. Quality checks on data are not normally performed. It is possible for incorrect values to appear. Refer to information at About Latest Weather Observations and please check the disclaimer before using these data.